createdAt,value
2018-09-05T00:01:17.883Z,79.18
2018-09-05T00:03:47.007Z,78.43
2018-09-05T00:06:16.049Z,77.81
2018-09-05T00:08:45.092Z,78.44
2018-09-05T00:11:14.492Z,79.32
2018-09-05T00:13:43.591Z,79.44
2018-09-05T00:16:12.741Z,79.34
2018-09-05T00:18:41.841Z,79.02
2018-09-05T00:21:10.797Z,78.74
2018-09-05T00:23:39.736Z,80.38
2018-09-05T00:26:08.677Z,80.22
2018-09-05T00:28:37.646Z,80.41
2018-09-05T00:31:09.747Z,79.82
2018-09-05T00:33:38.823Z,80.55
2018-09-05T00:36:08.224Z,81.46
2018-09-05T00:38:37.336Z,80.95
2018-09-05T00:41:06.350Z,80.72
2018-09-05T00:43:35.349Z,80.28
2018-09-05T00:46:04.301Z,81.15
2018-09-05T00:48:33.356Z,81.07
2018-09-05T00:51:02.338Z,81.05
2018-09-05T00:53:31.283Z,80.41
2018-09-05T00:56:00.347Z,80.87
2018-09-05T00:58:29.297Z,80.68
2018-09-05T01:00:58.381Z,80.85
2018-09-05T01:03:27.375Z,80.85
2018-09-05T01:05:56.429Z,81.07
2018-09-05T01:08:25.464Z,81.10
2018-09-05T01:10:54.450Z,81.47
2018-09-05T01:13:23.429Z,80.94
2018-09-05T01:15:52.394Z,81.32
2018-09-05T01:18:21.376Z,80.86
2018-09-05T01:20:50.375Z,80.17
2018-09-05T01:23:19.392Z,80.39
2018-09-05T01:25:48.350Z,80.20
2018-09-05T01:28:17.370Z,81.75
2018-09-05T01:30:46.679Z,80.29
2018-09-05T01:33:15.660Z,80.24
2018-09-05T01:35:44.850Z,79.75
2018-09-05T01:38:14.102Z,80.56
2018-09-05T01:40:43.006Z,80.86
2018-09-05T01:43:11.939Z,80.73
2018-09-05T01:45:41.110Z,82.11
2018-09-05T01:48:10.204Z,81.92
2018-09-05T01:50:43.825Z,83.63
2018-09-05T01:53:13.447Z,82.10
2018-09-05T01:55:42.441Z,81.93
2018-09-05T01:58:11.453Z,83.57
2018-09-05T02:00:40.431Z,82.08
2018-09-05T02:03:09.493Z,82.11
2018-09-05T02:05:38.414Z,82.45
2018-09-05T02:08:07.365Z,82.16
2018-09-05T02:10:36.322Z,81.90
2018-09-05T02:13:05.328Z,82.06
2018-09-05T02:15:34.666Z,82.89
2018-09-05T02:18:03.878Z,82.56
2018-09-05T02:20:32.880Z,82.17
2018-09-05T02:23:01.990Z,82.58
2018-09-05T02:25:31.031Z,81.96
2018-09-05T02:28:00.091Z,82.24
2018-09-05T02:30:29.112Z,82.38
2018-09-05T02:32:58.329Z,82.65
2018-09-05T02:35:27.386Z,81.52
2018-09-05T02:37:56.733Z,82.24
2018-09-05T02:40:25.851Z,81.74
2018-09-05T02:42:54.710Z,81.85
2018-09-05T02:45:23.818Z,81.25
2018-09-05T02:47:52.900Z,81.06
2018-09-05T02:50:21.864Z,81.11
2018-09-05T02:52:50.892Z,81.17
2018-09-05T02:55:25.309Z,83.20
2018-09-05T02:57:54.276Z,81.65
2018-09-05T03:00:23.245Z,82.26
2018-09-05T03:02:52.294Z,81.98
2018-09-05T03:05:21.215Z,81.12
2018-09-05T03:07:50.150Z,81.25
2018-09-05T03:10:19.549Z,80.99
2018-09-05T03:12:48.433Z,82.28
2018-09-05T03:15:17.487Z,82.76
2018-09-05T03:17:46.489Z,82.67
2018-09-05T03:20:15.446Z,83.31
2018-09-05T03:22:44.424Z,82.89
2018-09-05T03:25:13.482Z,83.01
2018-09-05T03:27:42.531Z,82.38
2018-09-05T03:30:11.816Z,83.44
2018-09-05T03:32:40.897Z,83.57
2018-09-05T03:35:09.775Z,83.05
2018-09-05T03:37:38.719Z,83.41
2018-09-05T03:40:07.618Z,83.47
2018-09-05T03:42:36.621Z,83.62
2018-09-05T03:45:05.659Z,84.08
2018-09-05T03:47:34.709Z,83.65
2018-09-05T03:50:03.625Z,83.25
2018-09-05T03:52:33.123Z,84.03
2018-09-05T03:55:02.217Z,84.08
2018-09-05T03:57:31.239Z,83.79
2018-09-05T04:00:00.244Z,83.71
2018-09-05T04:02:29.174Z,83.87
2018-09-05T04:04:59.034Z,84.47
2018-09-05T04:07:28.616Z,84.60
2018-09-05T04:09:57.647Z,85.37
2018-09-05T04:12:27.066Z,86.57
2018-09-05T04:14:56.339Z,86.12
2018-09-05T04:17:25.545Z,86.42
2018-09-05T04:19:54.625Z,86.28
2018-09-05T04:22:23.559Z,86.31
2018-09-05T04:24:52.531Z,87.17
2018-09-05T04:27:21.497Z,87.59
2018-09-05T04:29:50.472Z,86.55
2018-09-05T04:32:19.369Z,86.12
2018-09-05T04:34:48.292Z,87.13
2018-09-05T04:37:17.255Z,87.81
2018-09-05T04:39:46.222Z,88.16
2018-09-05T04:42:15.152Z,87.54
2018-09-05T04:44:44.164Z,88.17
2018-09-05T04:47:13.145Z,87.70
2018-09-05T04:49:42.055Z,87.77
2018-09-05T04:52:11.010Z,87.52
2018-09-05T04:54:39.982Z,88.52
2018-09-05T04:57:08.981Z,87.53
2018-09-05T04:59:37.952Z,88.89
2018-09-05T05:02:06.866Z,87.37
2018-09-05T05:04:35.885Z,88.07
2018-09-05T05:07:04.838Z,89.04
2018-09-05T05:09:33.732Z,88.86
2018-09-05T05:12:02.737Z,88.74
2018-09-05T05:14:31.652Z,89.44
2018-09-05T05:17:00.582Z,89.42
2018-09-05T05:19:29.588Z,90.16
2018-09-05T05:21:58.995Z,90.27
2018-09-05T05:24:28.003Z,90.18
2018-09-05T05:26:56.994Z,90.32
2018-09-05T05:29:26.109Z,90.61
2018-09-05T05:31:55.034Z,90.51
2018-09-05T05:34:24.006Z,90.73
2018-09-05T05:36:52.899Z,91.96
2018-09-05T05:39:21.921Z,90.45
2018-09-05T05:41:50.825Z,90.79
2018-09-05T05:44:19.785Z,91.11
2018-09-05T05:46:48.810Z,90.94
2018-09-05T05:49:17.733Z,90.84
2018-09-05T05:51:46.642Z,90.17
2018-09-05T05:54:15.547Z,90.48
2018-09-05T05:56:44.519Z,88.99
2018-09-05T05:59:13.438Z,91.06
2018-09-05T06:01:42.423Z,90.90
2018-09-05T06:04:11.411Z,90.65
2018-09-05T06:06:40.341Z,90.88
2018-09-05T06:09:10.350Z,90.12
2018-09-05T06:11:39.392Z,90.24
2018-09-05T06:14:08.375Z,90.95
2018-09-05T06:16:37.990Z,91.10
2018-09-05T06:19:06.877Z,91.98
2018-09-05T06:21:35.815Z,91.31
2018-09-05T06:24:05.149Z,91.75
2018-09-05T06:26:34.034Z,91.70
2018-09-05T06:29:02.979Z,92.66
2018-09-05T06:31:31.957Z,91.52
2018-09-05T06:34:00.865Z,91.24
2018-09-05T06:36:29.833Z,92.11
2018-09-05T06:38:59.433Z,91.42
2018-09-05T06:41:28.319Z,91.09
2018-09-05T06:43:57.409Z,90.93
2018-09-05T06:46:26.402Z,91.47
2018-09-05T06:48:55.343Z,91.48
2018-09-05T06:51:24.398Z,92.02
2018-09-05T06:53:53.414Z,92.67
2018-09-05T06:56:22.382Z,93.30
2018-09-05T06:58:51.408Z,92.18
2018-09-05T07:01:20.428Z,93.26
2018-09-05T07:03:49.600Z,94.45
2018-09-05T07:06:18.551Z,93.54
2018-09-05T07:08:47.521Z,92.45
2018-09-05T07:11:16.454Z,93.02
2018-09-05T07:13:45.441Z,91.74
2018-09-05T07:16:14.454Z,91.46
2018-09-05T07:18:43.381Z,91.36
2018-09-05T07:21:12.381Z,91.38
2018-09-05T07:23:41.480Z,91.08
2018-09-05T07:26:10.405Z,90.18
2018-09-05T07:28:39.341Z,89.59
2018-09-05T07:31:08.386Z,89.64
2018-09-05T07:33:37.306Z,88.96
2018-09-05T07:36:06.231Z,89.38
2018-09-05T07:38:35.181Z,90.44
2018-09-05T07:41:04.156Z,90.48
2018-09-05T07:43:33.142Z,91.24
2018-09-05T07:46:02.032Z,89.58
2018-09-05T07:48:31.009Z,90.19
2018-09-05T07:51:00.059Z,89.89
2018-09-05T07:53:28.904Z,90.20
2018-09-05T07:55:58.006Z,90.57
2018-09-05T07:58:27.230Z,90.95
2018-09-05T08:00:56.214Z,90.99
2018-09-05T08:03:25.154Z,89.99
2018-09-05T08:05:54.595Z,89.97
2018-09-05T08:08:23.606Z,89.78
2018-09-05T08:10:52.676Z,89.79
2018-09-05T08:13:21.607Z,90.41
2018-09-05T08:15:50.517Z,90.31
2018-09-05T08:18:19.466Z,89.60
2018-09-05T08:20:48.364Z,89.61
2018-09-05T08:23:17.437Z,90.27
2018-09-05T08:25:46.363Z,88.68
2018-09-05T08:28:15.277Z,89.77
2018-09-05T08:30:44.513Z,88.71
2018-09-05T08:33:13.408Z,88.91
2018-09-05T08:35:42.578Z,88.21
2018-09-05T08:38:11.334Z,89.21
2018-09-05T08:40:40.212Z,88.16
2018-09-05T08:43:09.130Z,87.92
2018-09-05T08:45:38.272Z,87.78
2018-09-05T08:48:07.006Z,87.53
2018-09-05T08:50:35.940Z,86.60
2018-09-05T08:53:05.168Z,87.95
2018-09-05T08:55:34.071Z,87.04
2018-09-05T08:58:03.006Z,86.79
2018-09-05T09:00:31.909Z,86.16
2018-09-05T09:03:00.911Z,86.16
2018-09-05T09:05:29.884Z,86.46
2018-09-05T09:07:58.858Z,85.79
2018-09-05T09:10:27.826Z,86.37
2018-09-05T09:12:56.787Z,85.62
2018-09-05T09:15:25.698Z,84.76
2018-09-05T09:17:54.655Z,85.21
2018-09-05T09:20:23.890Z,85.00
2018-09-05T09:22:52.825Z,84.43
2018-09-05T09:25:21.744Z,84.08
2018-09-05T09:27:50.717Z,84.28
2018-09-05T09:30:19.623Z,83.99
2018-09-05T09:32:48.613Z,84.06
2018-09-05T09:35:17.537Z,83.30
2018-09-05T09:37:46.458Z,82.58
2018-09-05T09:40:15.428Z,82.91
2018-09-05T09:42:44.391Z,82.46
2018-09-05T09:45:13.279Z,82.51
2018-09-05T09:47:42.201Z,82.43
2018-09-05T09:50:11.135Z,81.92
2018-09-05T09:52:40.056Z,81.82
2018-09-05T09:55:10.070Z,81.55
2018-09-05T09:57:39.029Z,80.91
2018-09-05T10:00:08.165Z,81.41
2018-09-05T10:02:42.744Z,80.63
2018-09-05T10:05:17.147Z,80.54
2018-09-05T10:07:51.438Z,80.42
2018-09-05T10:10:25.820Z,80.44
2018-09-05T10:13:00.125Z,79.80
2018-09-05T10:15:34.372Z,80.58
2018-09-05T10:18:08.663Z,79.86
2018-09-05T10:20:37.660Z,80.16
2018-09-05T10:23:06.610Z,79.34
2018-09-05T10:25:35.578Z,80.29
2018-09-05T10:28:04.810Z,79.94
2018-09-05T10:30:33.754Z,80.22
2018-09-05T10:35:42.368Z,79.99
2018-09-05T10:38:11.286Z,79.45
2018-09-05T10:40:40.229Z,79.32
2018-09-05T10:43:09.186Z,78.78
2018-09-05T10:45:38.081Z,78.41
2018-09-05T10:48:06.986Z,79.03
2018-09-05T10:50:35.984Z,79.14
2018-09-05T10:53:05.109Z,77.63
2018-09-05T10:55:34.059Z,77.43
2018-09-05T10:58:03.050Z,77.51
2018-09-05T11:00:31.979Z,77.07
2018-09-05T11:03:00.960Z,76.71
2018-09-05T11:05:29.893Z,77.19
2018-09-05T11:07:59.129Z,77.32
2018-09-05T11:10:28.064Z,76.05
2018-09-05T11:12:57.001Z,76.31
2018-09-05T11:15:25.974Z,75.47
2018-09-05T11:17:54.974Z,76.04
2018-09-05T11:20:24.059Z,75.89
2018-09-05T11:22:52.958Z,74.98
2018-09-05T11:25:21.932Z,73.89
2018-09-05T11:27:50.864Z,73.40
2018-09-05T11:30:19.815Z,73.08
2018-09-05T11:32:48.744Z,74.16
2018-09-05T11:35:17.702Z,73.61
2018-09-05T11:37:46.617Z,73.60
2018-09-05T11:40:15.538Z,72.85
2018-09-05T11:42:44.582Z,71.91
2018-09-05T11:45:13.490Z,73.21
2018-09-05T11:47:42.440Z,72.26
2018-09-05T11:50:11.599Z,71.89
2018-09-05T11:52:40.503Z,71.87
2018-09-05T11:55:09.514Z,72.51
2018-09-05T11:57:38.446Z,71.19
2018-09-05T12:00:07.428Z,71.51
2018-09-05T12:02:36.687Z,71.73
2018-09-05T12:05:05.704Z,71.04
2018-09-05T12:07:34.549Z,70.12
2018-09-05T12:10:03.518Z,70.58
2018-09-05T12:12:32.465Z,69.18
2018-09-05T12:15:01.434Z,70.23
2018-09-05T12:17:30.314Z,69.75
2018-09-05T12:19:59.338Z,69.59
2018-09-05T12:22:28.306Z,69.85
2018-09-05T12:24:57.316Z,70.68
2018-09-05T12:27:26.247Z,70.57
2018-09-05T12:29:55.237Z,71.32
2018-09-05T12:32:24.127Z,70.15
2018-09-05T12:34:53.101Z,68.96
2018-09-05T12:37:22.093Z,69.56
2018-09-05T12:39:51.024Z,69.42
2018-09-05T12:42:19.999Z,69.36
2018-09-05T12:44:49.072Z,68.88
2018-09-05T12:47:18.170Z,68.41
2018-09-05T12:49:47.098Z,69.25
2018-09-05T12:52:16.004Z,68.10
2018-09-05T12:54:45.217Z,67.72
2018-09-05T12:57:14.161Z,68.17
2018-09-05T12:59:43.077Z,67.52
2018-09-05T13:02:12.079Z,67.62
2018-09-05T13:04:41.139Z,66.68
2018-09-05T13:07:10.109Z,67.12
2018-09-05T13:09:39.078Z,65.83
2018-09-05T13:12:08.128Z,66.19
2018-09-05T13:14:37.078Z,66.47
2018-09-05T13:17:06.019Z,66.23
2018-09-05T13:19:35.019Z,65.63
2018-09-05T13:22:04.332Z,65.80
2018-09-05T13:24:33.258Z,66.14
2018-09-05T13:27:02.283Z,65.09
2018-09-05T13:29:31.180Z,65.78
2018-09-05T13:32:00.800Z,64.46
2018-09-05T13:34:29.712Z,64.93
2018-09-05T13:36:58.691Z,64.13
2018-09-05T13:39:27.651Z,64.19
2018-09-05T13:41:56.572Z,63.07
2018-09-05T13:44:25.487Z,63.50
2018-09-05T13:46:54.440Z,61.27
2018-09-05T13:49:23.423Z,62.80
2018-09-05T13:51:57.580Z,63.60
2018-09-05T13:54:26.535Z,62.59
2018-09-05T13:56:55.505Z,63.27
2018-09-05T13:59:24.474Z,62.60
2018-09-05T14:01:53.645Z,63.14
2018-09-05T14:04:23.769Z,63.00
2018-09-05T14:06:52.691Z,63.39
2018-09-05T14:09:21.638Z,63.43
2018-09-05T14:11:50.639Z,64.09
2018-09-05T14:14:19.599Z,63.14
2018-09-05T14:16:48.603Z,62.64
2018-09-05T14:19:17.500Z,61.45
2018-09-05T14:21:46.458Z,61.70
2018-09-05T14:24:15.355Z,62.96
2018-09-05T14:26:44.270Z,61.46
2018-09-05T14:29:13.302Z,61.99
2018-09-05T14:31:42.429Z,62.29
2018-09-05T14:34:11.436Z,62.31
2018-09-05T14:36:40.349Z,62.25
2018-09-05T14:39:11.948Z,62.81
2018-09-05T14:41:41.047Z,62.44
2018-09-05T14:44:10.282Z,62.35
2018-09-05T14:46:39.245Z,61.65
2018-09-05T14:49:08.172Z,62.10
2018-09-05T14:51:37.179Z,60.97
2018-09-05T14:54:10.063Z,60.96
2018-09-05T14:56:39.006Z,60.35
2018-09-05T14:59:07.920Z,60.75
2018-09-05T15:01:36.952Z,60.70
2018-09-05T15:04:05.955Z,60.30
2018-09-05T15:06:34.981Z,60.67
2018-09-05T15:09:04.660Z,60.33
2018-09-05T15:11:33.594Z,60.41
2018-09-05T15:14:02.577Z,61.54
2018-09-05T15:16:31.470Z,61.64
2018-09-05T15:19:00.562Z,62.03
2018-09-05T15:21:29.534Z,61.65
2018-09-05T15:23:58.469Z,61.94
2018-09-05T15:26:27.439Z,61.10
2018-09-05T15:28:56.379Z,61.78
2018-09-05T15:31:25.315Z,61.72
2018-09-05T15:33:54.211Z,60.94
2018-09-05T15:36:23.169Z,60.11
2018-09-05T15:38:52.456Z,60.13
2018-09-05T15:41:21.371Z,59.08
2018-09-05T15:43:50.263Z,60.00
2018-09-05T15:46:19.227Z,59.54
2018-09-05T15:48:48.129Z,59.49
2018-09-05T15:51:17.060Z,58.89
2018-09-05T15:53:46.026Z,59.03
2018-09-05T15:56:14.962Z,59.46
2018-09-05T15:58:44.107Z,58.25
2018-09-05T16:01:13.323Z,58.57
2018-09-05T16:03:42.333Z,58.54
2018-09-05T16:06:11.187Z,58.23
2018-09-05T16:08:40.115Z,57.75
2018-09-05T16:11:09.081Z,58.36
2018-09-05T16:13:38.253Z,58.53
2018-09-05T16:16:07.223Z,58.21
2018-09-05T16:18:36.180Z,57.30
2018-09-05T16:21:05.234Z,57.83
2018-09-05T16:23:34.139Z,57.84
2018-09-05T16:26:03.102Z,58.36
2018-09-05T16:28:32.036Z,58.63
2018-09-05T16:31:00.964Z,58.91
2018-09-05T16:33:29.897Z,57.81
2018-09-05T16:35:58.806Z,59.35
2018-09-05T16:38:27.763Z,59.02
2018-09-05T16:40:56.694Z,58.96
2018-09-05T16:43:25.737Z,58.60
2018-09-05T16:45:54.799Z,58.57
2018-09-05T16:48:23.736Z,57.87
2018-09-05T16:50:52.793Z,58.51
2018-09-05T16:53:21.730Z,57.84
2018-09-05T16:55:50.647Z,57.82
2018-09-05T16:58:19.675Z,57.56
2018-09-05T17:00:48.777Z,59.05
2018-09-05T17:03:17.801Z,58.13
2018-09-05T17:05:46.767Z,58.52
2018-09-05T17:08:15.739Z,58.69
2018-09-05T17:10:44.695Z,59.52
2018-09-05T17:13:13.642Z,59.18
2018-09-05T17:15:42.580Z,58.68
2018-09-05T17:18:11.574Z,59.67
2018-09-05T17:20:40.542Z,59.44
2018-09-05T17:23:10.129Z,59.38
2018-09-05T17:25:39.122Z,59.62
2018-09-05T17:28:08.084Z,59.02
2018-09-05T17:30:37.047Z,59.50
2018-09-05T17:33:05.999Z,59.58
2018-09-05T17:35:35.127Z,58.99
2018-09-05T17:38:04.407Z,60.41
2018-09-05T17:40:33.400Z,60.02
2018-09-05T17:43:02.367Z,60.25
2018-09-05T17:45:31.353Z,60.52
2018-09-05T17:48:00.313Z,60.75
2018-09-05T17:50:29.258Z,59.88
2018-09-05T17:52:58.224Z,60.34
2018-09-05T17:55:27.125Z,60.32
2018-09-05T17:57:56.377Z,60.73
2018-09-05T18:00:25.294Z,60.39
2018-09-05T18:02:54.298Z,60.74
2018-09-05T18:05:23.259Z,61.31
2018-09-05T18:07:52.218Z,60.44
2018-09-05T18:10:21.123Z,61.26
2018-09-05T18:12:50.056Z,62.34
2018-09-05T18:15:19.023Z,62.49
2018-09-05T18:17:48.298Z,62.85
2018-09-05T18:20:17.248Z,64.38
2018-09-05T18:22:46.795Z,64.71
2018-09-05T18:25:15.839Z,65.20
2018-09-05T18:27:44.798Z,66.84
2018-09-05T18:30:13.773Z,66.56
2018-09-05T18:32:42.763Z,67.38
2018-09-05T18:35:11.807Z,68.09
2018-09-05T18:37:40.784Z,66.72
2018-09-05T18:40:09.840Z,67.63
2018-09-05T18:42:38.794Z,67.12
2018-09-05T18:45:08.304Z,67.61
2018-09-05T18:47:37.245Z,67.34
2018-09-05T18:50:06.250Z,69.44
2018-09-05T18:52:35.282Z,68.63
2018-09-05T18:55:04.220Z,69.34
2018-09-05T18:57:33.182Z,69.01
2018-09-05T19:00:02.137Z,69.62
2018-09-05T19:02:31.136Z,69.04
2018-09-05T19:05:00.099Z,69.39
2018-09-05T19:07:29.326Z,70.18
2018-09-05T19:09:58.315Z,70.33
2018-09-05T19:12:27.772Z,71.39
2018-09-05T19:14:56.773Z,70.81
2018-09-05T19:17:25.742Z,71.02
2018-09-05T19:19:54.740Z,70.92
2018-09-05T19:22:23.768Z,72.00
2018-09-05T19:24:52.741Z,71.89
2018-09-05T19:27:21.789Z,72.32
2018-09-05T19:29:50.769Z,72.41
2018-09-05T19:32:20.889Z,72.22
2018-09-05T19:34:49.883Z,72.50
2018-09-05T19:37:19.681Z,71.93
2018-09-05T19:39:48.908Z,72.48
2018-09-05T19:42:17.888Z,72.91
2018-09-05T19:44:46.854Z,72.14
2018-09-05T19:47:16.476Z,73.33
2018-09-05T19:49:45.469Z,72.65
2018-09-05T19:52:14.425Z,72.77
2018-09-05T19:54:43.399Z,72.46
2018-09-05T19:57:13.211Z,73.34
2018-09-05T19:59:42.175Z,72.94
2018-09-05T20:02:11.142Z,73.22
2018-09-05T20:04:40.150Z,73.58
2018-09-05T20:07:09.130Z,73.48
2018-09-05T20:09:38.086Z,73.72
2018-09-05T20:12:07.011Z,74.06
2018-09-05T20:14:36.033Z,74.16
2018-09-05T20:17:05.223Z,74.70
2018-09-05T20:19:34.187Z,75.40
2018-09-05T20:22:03.152Z,74.59
2018-09-05T20:24:32.146Z,74.27
2018-09-05T20:27:01.065Z,73.99
2018-09-05T20:29:30.386Z,73.95
2018-09-05T20:31:59.373Z,74.89
2018-09-05T20:34:28.421Z,75.15
2018-09-05T20:36:57.418Z,75.47
2018-09-05T20:39:26.391Z,74.91
2018-09-05T20:41:55.356Z,75.38
2018-09-05T20:44:24.351Z,75.42
2018-09-05T20:46:53.283Z,75.74
2018-09-05T20:49:22.293Z,75.73
2018-09-05T20:51:51.260Z,74.91
2018-09-05T20:54:20.176Z,75.66
2018-09-05T20:56:49.916Z,75.82
2018-09-05T20:59:18.929Z,76.24
2018-09-05T21:01:47.854Z,75.76
2018-09-05T21:04:16.845Z,76.22
2018-09-05T21:06:45.790Z,76.29
2018-09-05T21:09:14.796Z,76.39
2018-09-05T21:11:43.850Z,76.28
2018-09-05T21:14:12.786Z,76.34
2018-09-05T21:16:41.737Z,76.60
2018-09-05T21:19:10.652Z,76.82
2018-09-05T21:21:39.716Z,77.01
2018-09-05T21:24:08.732Z,76.27
2018-09-05T21:26:37.819Z,76.03
2018-09-05T21:29:06.783Z,76.80
2018-09-05T21:31:35.742Z,76.41
2018-09-05T21:34:04.692Z,77.33
2018-09-05T21:36:33.851Z,76.14
2018-09-05T21:39:02.846Z,75.78
2018-09-05T21:41:31.820Z,76.57
2018-09-05T21:44:00.834Z,75.95
2018-09-05T21:46:29.820Z,76.05
2018-09-05T21:48:58.809Z,75.69
2018-09-05T21:51:28.102Z,75.72
2018-09-05T21:53:57.028Z,76.16
2018-09-05T21:56:25.996Z,76.06
2018-09-05T21:58:54.989Z,75.53
2018-09-05T22:01:24.361Z,75.41
2018-09-05T22:03:53.564Z,75.55
2018-09-05T22:06:22.614Z,75.06
2018-09-05T22:08:51.678Z,75.70
2018-09-05T22:11:26.894Z,75.87
2018-09-05T22:13:56.578Z,74.63
2018-09-05T22:16:25.840Z,74.95
2018-09-05T22:18:54.958Z,74.73
2018-09-05T22:21:23.872Z,74.83
2018-09-05T22:23:54.522Z,74.67
2018-09-05T22:26:23.746Z,75.02
2018-09-05T22:28:53.523Z,74.75
2018-09-05T22:31:22.993Z,75.29
2018-09-05T22:33:52.548Z,74.74
2018-09-05T22:36:23.804Z,74.76
2018-09-05T22:38:52.792Z,74.88
2018-09-05T22:41:21.861Z,74.64
2018-09-05T22:44:02.013Z,74.78
2018-09-05T22:46:42.402Z,75.28
2018-09-05T22:49:24.460Z,75.19
2018-09-05T22:52:16.693Z,74.48
2018-09-05T22:57:05.744Z,75.66
2018-09-05T22:59:47.488Z,75.44
2018-09-05T23:02:57.796Z,76.78
2018-09-05T23:05:54.845Z,75.81
2018-09-05T23:08:37.619Z,76.76
2018-09-05T23:11:18.681Z,76.40
2018-09-05T23:13:59.858Z,76.30
2018-09-05T23:16:40.501Z,76.48
2018-09-05T23:19:32.437Z,76.84
2018-09-05T23:22:01.343Z,77.63
2018-09-05T23:24:30.264Z,77.57
2018-09-05T23:26:59.225Z,76.98
2018-09-05T23:29:28.128Z,77.59
2018-09-05T23:31:57.047Z,77.29
2018-09-05T23:34:25.974Z,76.36
2018-09-05T23:36:55.083Z,77.18
2018-09-05T23:39:24.046Z,77.28
2018-09-05T23:41:52.990Z,77.07
2018-09-05T23:44:21.916Z,76.75
2018-09-05T23:46:50.887Z,77.08
2018-09-05T23:49:19.800Z,76.63
2018-09-05T23:51:48.751Z,76.79
2018-09-05T23:54:17.751Z,77.26
2018-09-05T23:56:46.677Z,76.50
2018-09-05T23:59:15.663Z,77.52
